Time;durP1;ratioP1;P1;durP2;ratioP2;P2;SDS_P1;SDS_P2;PMS_P1;PMS_P2;Temp;Humidity;BMP_temperature;BMP_pressure;BME280_temperature;BME280_humidity;BME280_pressure;Samples;Min_cycle;Max_cycle;Signal;HPM_P1;HPM_P2
2021/08/15 00:01:04;;;;;;;18.33;11.60;;;16.20;92.70;;;;;;4959109;28;20043;-53
2021/08/15 00:03:29;;;;;;;17.15;10.80;;;16.20;92.70;;;;;;4975945;28;20070;-53
2021/08/15 00:05:55;;;;;;;16.52;11.32;;;16.20;92.60;;;;;;4974933;28;20101;-50
2021/08/15 00:08:21;;;;;;;18.13;9.95;;;16.20;92.60;;;;;;4974608;28;20142;-52
2021/08/15 00:10:46;;;;;;;16.02;10.68;;;16.20;92.60;;;;;;4972427;28;20042;-53
2021/08/15 00:13:12;;;;;;;15.27;10.57;;;16.20;92.60;;;;;;4971157;28;20049;-53
2021/08/15 00:15:37;;;;;;;18.33;11.20;;;16.20;92.60;;;;;;4973781;28;20411;-54
2021/08/15 00:18:03;;;;;;;20.70;10.65;;;16.20;92.60;;;;;;4974368;28;20050;-54
2021/08/15 00:20:29;;;;;;;19.08;10.48;;;16.20;92.60;;;;;;4967420;28;20478;-54
2021/08/15 00:22:55;;;;;;;15.32;9.88;;;16.20;92.60;;;;;;4955369;28;20043;-54
2021/08/15 00:25:21;;;;;;;17.33;10.63;;;16.20;92.60;;;;;;4951621;28;20077;-54
2021/08/15 00:27:47;;;;;;;15.43;9.88;;;16.20;92.60;;;;;;4962351;28;20059;-54
2021/08/15 00:30:14;;;;;;;14.20;9.45;;;16.20;92.60;;;;;;4973693;28;20049;-54
2021/08/15 00:32:43;;;;;;;16.95;9.85;;;16.20;92.60;;;;;;4955484;28;20049;-51
2021/08/15 00:35:09;;;;;;;16.77;9.35;;;16.20;92.60;;;;;;4972486;28;20043;-52
2021/08/15 00:37:35;;;;;;;13.60;9.00;;;16.20;92.60;;;;;;4974673;28;20038;-54
2021/08/15 00:40:03;;;;;;;16.10;9.15;;;16.20;92.60;;;;;;4932523;28;20078;-55
2021/08/15 00:42:31;;;;;;;14.70;8.82;;;16.30;92.60;;;;;;4972564;28;20044;-54
2021/08/15 00:44:57;;;;;;;16.75;9.68;;;16.20;92.50;;;;;;4967366;28;20093;-54
2021/08/15 00:47:22;;;;;;;16.58;9.65;;;16.30;92.60;;;;;;4971682;28;20051;-53
2021/08/15 00:49:48;;;;;;;15.65;9.23;;;16.20;92.50;;;;;;4971912;28;20041;-54
2021/08/15 00:52:14;;;;;;;15.40;8.43;;;16.20;92.50;;;;;;4971823;28;20039;-55
2021/08/15 00:54:39;;;;;;;15.63;8.32;;;16.20;92.60;;;;;;4964557;28;20496;-55
2021/08/15 00:57:07;;;;;;;14.30;8.15;;;16.20;92.60;;;;;;4970165;28;20130;-52
2021/08/15 00:59:37;;;;;;;14.65;8.20;;;16.20;92.60;;;;;;4966621;28;20067;-55
2021/08/15 01:02:03;;;;;;;13.18;8.00;;;16.20;92.60;;;;;;4970528;28;20138;-54
2021/08/15 01:04:29;;;;;;;13.20;7.78;;;16.20;92.60;;;;;;4972616;28;20134;-55
2021/08/15 01:06:55;;;;;;;16.17;7.88;;;16.20;92.60;;;;;;4972014;28;20050;-55
2021/08/15 01:09:21;;;;;;;13.82;7.47;;;16.20;92.60;;;;;;4968989;28;20045;-55
2021/08/15 01:11:48;;;;;;;15.23;8.10;;;16.20;92.60;;;;;;4971887;28;20047;-53
2021/08/15 01:14:14;;;;;;;13.05;7.45;;;16.20;92.60;;;;;;4947224;28;20042;-52
2021/08/15 01:16:42;;;;;;;14.07;8.10;;;16.20;92.60;;;;;;4960856;28;20043;-55
2021/08/15 01:19:10;;;;;;;13.13;8.30;;;16.20;92.50;;;;;;4973153;28;20113;-52
2021/08/15 01:21:40;;;;;;;14.23;8.10;;;16.20;92.50;;;;;;4959286;28;20039;-50
2021/08/15 01:24:06;;;;;;;13.80;8.38;;;16.20;92.60;;;;;;4965604;28;20073;-53
2021/08/15 01:26:33;;;;;;;14.27;8.60;;;16.20;92.60;;;;;;4966294;28;20603;-54
2021/08/15 01:29:02;;;;;;;11.93;7.70;;;16.20;92.60;;;;;;4940104;28;20062;-53
2021/08/15 01:31:28;;;;;;;15.13;8.23;;;16.20;92.60;;;;;;4970969;28;20049;-55
2021/08/15 01:33:54;;;;;;;15.18;8.15;;;16.20;92.50;;;;;;4974898;28;20133;-54
2021/08/15 01:36:22;;;;;;;14.40;8.10;;;16.20;92.60;;;;;;4964496;28;20102;-54
2021/08/15 01:38:50;;;;;;;17.40;8.23;;;16.20;92.60;;;;;;4967343;28;20047;-55
2021/08/15 01:41:15;;;;;;;14.98;7.80;;;16.20;92.60;;;;;;4971992;28;20105;-54
2021/08/15 01:43:51;;;;;;;15.23;8.80;;;16.20;92.60;;;;;;4964938;28;20046;-54
2021/08/15 01:46:19;;;;;;;12.60;8.20;;;16.20;92.60;;;;;;4963488;28;20061;-54
2021/08/15 01:48:45;;;;;;;14.57;8.07;;;16.20;92.60;;;;;;4966900;28;20377;-55
2021/08/15 01:51:11;;;;;;;14.50;8.13;;;16.10;92.60;;;;;;4970255;28;20081;-53
2021/08/15 01:53:36;;;;;;;12.77;8.05;;;16.10;92.60;;;;;;4975721;28;20038;-55
2021/08/15 01:56:03;;;;;;;13.55;8.00;;;16.10;92.60;;;;;;4963586;28;20484;-55
2021/08/15 01:58:29;;;;;;;13.40;8.05;;;16.10;92.60;;;;;;4970059;28;20046;-54
2021/08/15 02:00:54;;;;;;;18.77;8.95;;;16.10;92.60;;;;;;4973495;28;20069;-55
2021/08/15 02:03:20;;;;;;;16.35;8.95;;;16.10;92.70;;;;;;4975776;28;20039;-52
2021/08/15 02:05:45;;;;;;;14.20;9.00;;;16.10;92.70;;;;;;4977150;28;20050;-53
2021/08/15 02:08:11;;;;;;;13.02;8.65;;;16.00;92.60;;;;;;4968221;28;20103;-54
2021/08/15 02:10:38;;;;;;;15.35;8.93;;;16.00;92.70;;;;;;4938164;28;20053;-54
2021/08/15 02:13:05;;;;;;;12.75;8.48;;;16.00;92.70;;;;;;4975417;28;20034;-52
2021/08/15 02:15:31;;;;;;;15.05;8.90;;;16.00;92.80;;;;;;4961000;28;20106;-52
2021/08/15 02:17:59;;;;;;;14.23;8.80;;;16.00;92.70;;;;;;4974104;28;20137;-50
2021/08/15 02:20:25;;;;;;;17.05;8.77;;;16.00;92.70;;;;;;4977102;28;20114;-54
2021/08/15 02:22:50;;;;;;;15.85;9.13;;;15.90;92.70;;;;;;4958060;28;20077;-51
2021/08/15 02:25:18;;;;;;;13.25;8.15;;;16.00;92.80;;;;;;4971130;28;20727;-52
2021/08/15 02:27:44;;;;;;;16.90;8.77;;;15.90;92.80;;;;;;4960118;28;20047;-53
2021/08/15 02:30:13;;;;;;;14.60;9.05;;;15.90;92.80;;;;;;4961575;28;20047;-55
2021/08/15 02:32:39;;;;;;;17.48;9.35;;;15.90;92.80;;;;;;4965500;28;20046;-53
2021/08/15 02:35:06;;;;;;;16.63;9.15;;;15.90;92.90;;;;;;4977421;28;20043;-55
2021/08/15 02:37:32;;;;;;;17.13;9.80;;;15.90;92.90;;;;;;4953796;29;20047;-52
2021/08/15 02:39:59;;;;;;;16.38;9.75;;;15.90;92.90;;;;;;4959798;28;20049;-50
2021/08/15 02:42:29;;;;;;;18.10;9.75;;;15.90;92.90;;;;;;4963913;28;20038;-53
2021/08/15 02:44:55;;;;;;;22.02;9.45;;;15.90;92.90;;;;;;4975779;28;20476;-53
2021/08/15 02:47:22;;;;;;;15.48;9.77;;;15.80;92.90;;;;;;4978994;28;20483;-54
2021/08/15 02:49:47;;;;;;;14.60;9.25;;;15.80;92.90;;;;;;4975123;28;20051;-55
2021/08/15 02:52:13;;;;;;;17.90;10.35;;;15.80;92.90;;;;;;4970673;28;20047;-53
2021/08/15 02:54:39;;;;;;;15.88;10.02;;;15.80;92.90;;;;;;4975741;28;20042;-51
2021/08/15 02:57:05;;;;;;;16.77;9.90;;;15.80;93.10;;;;;;4953270;28;20065;-52
2021/08/15 02:59:33;;;;;;;14.80;8.88;;;15.80;93.00;;;;;;4975573;28;20050;-51
2021/08/15 03:01:59;;;;;;;15.93;9.65;;;15.80;93.00;;;;;;4974812;28;20057;-54
2021/08/15 03:04:25;;;;;;;19.90;9.82;;;15.80;93.00;;;;;;4953868;28;20047;-54
2021/08/15 03:06:52;;;;;;;15.18;9.77;;;15.80;93.00;;;;;;4958473;28;20055;-53
2021/08/15 03:09:17;;;;;;;15.15;9.55;;;15.80;93.10;;;;;;4951078;28;20388;-54
2021/08/15 03:11:43;;;;;;;17.23;9.25;;;15.80;93.10;;;;;;4975312;28;20043;-53
2021/08/15 03:14:09;;;;;;;15.68;9.90;;;15.70;93.10;;;;;;4971039;28;20043;-53
2021/08/15 03:16:35;;;;;;;15.02;9.07;;;15.70;93.10;;;;;;4976614;28;20090;-51
2021/08/15 03:19:05;;;;;;;14.82;9.18;;;15.70;93.10;;;;;;4959391;28;20050;-51
2021/08/15 03:21:34;;;;;;;14.90;9.02;;;15.70;93.10;;;;;;4962541;28;20042;-49
2021/08/15 03:24:02;;;;;;;16.60;8.70;;;15.70;93.10;;;;;;4981102;28;20097;-50
2021/08/15 03:26:27;;;;;;;15.93;9.55;;;15.70;93.10;;;;;;4948400;29;20043;-50
2021/08/15 03:28:53;;;;;;;16.85;9.07;;;15.70;93.20;;;;;;4969465;28;20042;-50
2021/08/15 03:31:20;;;;;;;18.08;9.55;;;15.70;93.10;;;;;;4964784;28;20256;-50
2021/08/15 03:33:46;;;;;;;15.68;8.73;;;15.70;93.20;;;;;;4965294;28;20254;-50
2021/08/15 03:36:13;;;;;;;15.85;9.40;;;15.70;93.10;;;;;;4971224;28;20054;-52
2021/08/15 03:38:38;;;;;;;13.95;8.73;;;15.70;93.20;;;;;;4956506;28;20077;-52
2021/08/15 03:41:04;;;;;;;15.48;9.63;;;15.60;93.10;;;;;;4962764;28;20050;-52
2021/08/15 03:43:31;;;;;;;15.68;9.27;;;15.60;93.10;;;;;;4975131;28;20043;-49
2021/08/15 03:45:56;;;;;;;15.18;9.80;;;15.60;93.20;;;;;;4972601;28;20121;-51
2021/08/15 03:48:22;;;;;;;13.55;8.77;;;15.60;93.20;;;;;;4966537;28;20049;-50
2021/08/15 03:50:47;;;;;;;14.02;8.73;;;15.60;93.40;;;;;;4965960;28;20514;-50
2021/08/15 03:53:13;;;;;;;15.45;9.15;;;15.60;93.20;;;;;;4968652;28;20045;-51
2021/08/15 03:55:39;;;;;;;14.90;8.98;;;15.60;93.20;;;;;;4964729;28;20039;-49
2021/08/15 03:58:05;;;;;;;13.73;9.13;;;15.60;93.20;;;;;;4946515;28;20035;-51
2021/08/15 04:00:39;;;;;;;20.23;9.23;;;15.60;93.20;;;;;;4969985;28;20039;-50
2021/08/15 04:03:06;;;;;;;15.05;8.73;;;15.50;93.20;;;;;;4959184;28;20496;-50
2021/08/15 04:05:31;;;;;;;15.55;8.65;;;15.60;93.30;;;;;;4963425;28;20043;-53
2021/08/15 04:07:57;;;;;;;15.80;8.07;;;15.60;93.30;;;;;;4980840;28;20039;-50
2021/08/15 04:10:22;;;;;;;12.82;8.30;;;15.50;93.20;;;;;;4965925;28;20133;-51
2021/08/15 04:12:48;;;;;;;13.73;8.30;;;15.60;93.30;;;;;;4964835;28;20419;-51
2021/08/15 04:15:13;;;;;;;14.88;9.15;;;15.60;93.30;;;;;;4967597;28;20045;-52
2021/08/15 04:17:39;;;;;;;13.85;8.13;;;15.50;93.30;;;;;;4965779;28;20094;-52
2021/08/15 04:20:06;;;;;;;14.40;8.90;;;15.60;93.30;;;;;;4970982;28;20040;-52
2021/08/15 04:22:32;;;;;;;17.08;9.13;;;15.60;93.30;;;;;;4966246;28;20042;-50
2021/08/15 04:24:59;;;;;;;12.65;8.50;;;15.60;93.30;;;;;;4968243;28;20053;-52
2021/08/15 04:27:34;;;;;;;13.43;8.15;;;15.60;93.40;;;;;;4957953;28;20050;-52
2021/08/15 04:30:03;;;;;;;12.85;8.45;;;15.60;93.40;;;;;;4947956;28;20055;-50
2021/08/15 04:32:30;;;;;;;17.20;8.93;;;15.60;93.40;;;;;;4930478;28;20332;-53
2021/08/15 04:34:57;;;;;;;12.43;8.00;;;15.60;93.40;;;;;;4959869;28;20039;-55
2021/08/15 04:37:23;;;;;;;17.48;8.82;;;15.60;93.40;;;;;;4967726;28;20049;-52
2021/08/15 04:39:49;;;;;;;15.32;8.20;;;15.60;93.40;;;;;;4951312;28;20109;-54
2021/08/15 04:42:15;;;;;;;15.30;8.77;;;15.60;93.40;;;;;;4968064;28;20484;-51
2021/08/15 04:44:42;;;;;;;15.23;8.45;;;15.60;93.40;;;;;;4953075;28;20054;-53
2021/08/15 04:47:08;;;;;;;14.05;8.27;;;15.60;93.40;;;;;;4952911;28;20050;-54
2021/08/15 04:49:34;;;;;;;15.65;8.50;;;15.60;93.50;;;;;;4967140;28;20049;-54
2021/08/15 04:51:59;;;;;;;14.88;8.55;;;15.60;93.50;;;;;;4967166;28;20081;-53
2021/08/15 04:54:28;;;;;;;15.85;8.02;;;15.60;93.50;;;;;;4966525;28;20133;-54
2021/08/15 04:56:59;;;;;;;15.13;8.48;;;15.60;93.50;;;;;;4968831;28;20042;-53
2021/08/15 04:59:26;;;;;;;12.73;7.97;;;15.60;93.60;;;;;;4948124;29;20031;-51
2021/08/15 05:01:54;;;;;;;14.23;8.32;;;15.60;93.60;;;;;;4937415;28;20058;-52
2021/08/15 05:04:29;;;;;;;14.52;8.18;;;15.60;93.60;;;;;;4968017;28;20043;-52
2021/08/15 05:06:55;;;;;;;14.80;8.70;;;15.60;93.60;;;;;;4966406;28;20061;-50
2021/08/15 05:09:21;;;;;;;16.02;8.40;;;15.60;93.60;;;;;;4931377;28;20043;-52
2021/08/15 05:11:48;;;;;;;14.20;8.40;;;15.60;93.60;;;;;;4954814;28;20097;-53
2021/08/15 05:14:14;;;;;;;14.07;8.85;;;15.60;93.60;;;;;;4952727;28;20518;-52
2021/08/15 05:16:39;;;;;;;14.40;8.70;;;15.60;93.70;;;;;;4968114;28;20039;-49
2021/08/15 05:19:06;;;;;;;17.27;8.10;;;15.60;93.80;;;;;;4963152;28;20046;-52
2021/08/15 05:21:31;;;;;;;13.10;8.27;;;15.60;93.80;;;;;;4978987;28;20050;-53
2021/08/15 05:23:58;;;;;;;14.45;8.60;;;15.60;93.80;;;;;;4967410;28;20063;-50
2021/08/15 05:26:24;;;;;;;14.65;8.07;;;15.60;94.00;;;;;;4975697;28;20149;-51
2021/08/15 05:28:50;;;;;;;15.73;7.72;;;15.60;94.00;;;;;;4960987;28;20046;-51
2021/08/15 05:31:16;;;;;;;14.73;7.93;;;15.60;94.10;;;;;;4963368;28;20042;-52
2021/08/15 05:33:42;;;;;;;15.27;8.38;;;15.60;94.20;;;;;;4958885;28;20129;-51
2021/08/15 05:36:09;;;;;;;17.13;8.43;;;15.60;94.20;;;;;;4966205;28;20122;-51
2021/08/15 05:38:35;;;;;;;15.30;8.60;;;15.60;94.20;;;;;;4939409;28;20463;-51
2021/08/15 05:41:03;;;;;;;16.20;8.75;;;15.60;94.20;;;;;;4962137;28;20051;-50
2021/08/15 05:43:29;;;;;;;14.27;8.43;;;15.70;94.20;;;;;;4972644;28;20089;-51
2021/08/15 05:45:55;;;;;;;16.52;9.20;;;15.70;94.20;;;;;;4950834;28;20042;-52
2021/08/15 05:48:21;;;;;;;13.82;8.63;;;15.70;94.10;;;;;;4967587;28;20105;-47
2021/08/15 05:50:48;;;;;;;13.43;9.27;;;15.70;94.10;;;;;;4917437;29;20050;-52
2021/08/15 05:53:19;;;;;;;14.82;9.43;;;15.70;94.00;;;;;;4965590;28;20105;-49
2021/08/15 05:55:45;;;;;;;16.55;9.25;;;15.70;94.00;;;;;;4945329;29;20484;-53
2021/08/15 05:58:11;;;;;;;13.85;9.00;;;15.70;94.00;;;;;;4938763;28;20105;-52
2021/08/15 06:00:37;;;;;;;14.95;8.70;;;15.70;94.10;;;;;;4967318;28;20448;-51
2021/08/15 06:03:04;;;;;;;12.88;8.40;;;15.80;94.10;;;;;;4949211;28;20066;-53
2021/08/15 06:05:29;;;;;;;15.73;8.40;;;15.80;94.00;;;;;;4972374;28;20165;-49
2021/08/15 06:07:55;;;;;;;16.77;9.60;;;16.00;93.90;;;;;;4973716;28;20035;-54
2021/08/15 06:10:21;;;;;;;19.42;8.85;;;16.40;93.30;;;;;;4971792;28;20043;-55
2021/08/15 06:12:47;;;;;;;14.25;8.27;;;16.60;92.80;;;;;;4928148;28;20042;-54
2021/08/15 06:15:13;;;;;;;16.08;8.63;;;16.60;92.80;;;;;;4945783;28;20395;-54
2021/08/15 06:17:43;;;;;;;15.40;8.43;;;16.60;92.90;;;;;;4965197;28;20061;-54
2021/08/15 06:20:11;;;;;;;13.88;8.68;;;16.60;92.90;;;;;;4969745;28;20051;-54
2021/08/15 06:22:43;;;;;;;17.08;8.85;;;16.70;93.00;;;;;;4972009;28;20039;-53
2021/08/15 06:25:12;;;;;;;13.90;8.80;;;16.80;92.90;;;;;;4959151;28;20579;-54
2021/08/15 06:27:44;;;;;;;16.70;8.80;;;17.00;92.70;;;;;;4952773;28;20043;-48
2021/08/15 06:30:14;;;;;;;16.17;8.57;;;17.00;92.50;;;;;;4968197;28;20058;-53
2021/08/15 06:32:45;;;;;;;17.45;8.52;;;17.10;92.50;;;;;;4946581;28;20039;-54
2021/08/15 06:35:14;;;;;;;17.03;8.50;;;17.00;92.60;;;;;;4964000;28;20102;-55
2021/08/15 06:37:39;;;;;;;15.18;8.80;;;17.10;92.70;;;;;;4978266;28;20034;-55
2021/08/15 06:40:05;;;;;;;12.98;8.35;;;17.10;92.80;;;;;;4978175;28;20050;-55
2021/08/15 06:42:31;;;;;;;14.75;8.50;;;17.10;92.80;;;;;;4987994;28;20038;-55
2021/08/15 06:44:57;;;;;;;14.00;8.13;;;17.20;92.80;;;;;;4961020;28;20512;-55
2021/08/15 06:47:22;;;;;;;13.00;8.85;;;17.20;92.80;;;;;;4968651;28;20050;-54
2021/08/15 06:49:48;;;;;;;15.13;8.10;;;17.30;92.80;;;;;;4952490;28;20046;-55
2021/08/15 06:52:15;;;;;;;13.43;7.60;;;17.40;92.70;;;;;;4960340;28;20395;-55
2021/08/15 06:54:41;;;;;;;13.65;8.20;;;17.40;92.60;;;;;;4923937;28;20051;-52
2021/08/15 06:57:07;;;;;;;13.55;8.10;;;17.40;92.50;;;;;;4956180;28;20112;-52
2021/08/15 06:59:34;;;;;;;12.55;7.95;;;17.50;92.50;;;;;;4962660;28;20134;-51
2021/08/15 07:02:00;;;;;;;15.15;7.57;;;17.50;92.40;;;;;;4948231;28;20051;-52
2021/08/15 07:04:25;;;;;;;12.52;7.28;;;17.60;92.50;;;;;;4980522;28;20116;-52
2021/08/15 07:06:51;;;;;;;14.15;7.90;;;17.60;92.30;;;;;;4951484;28;20031;-52
2021/08/15 07:09:17;;;;;;;17.20;7.18;;;17.70;92.30;;;;;;4960801;28;20043;-52
2021/08/15 07:11:49;;;;;;;13.07;7.18;;;17.70;92.30;;;;;;4956489;28;20082;-52
2021/08/15 07:14:15;;;;;;;12.25;7.50;;;17.80;92.20;;;;;;4973149;28;20148;-51
2021/08/15 07:16:41;;;;;;;12.73;7.90;;;17.90;92.20;;;;;;4972313;28;20039;-53
2021/08/15 07:19:06;;;;;;;17.00;8.05;;;18.00;92.10;;;;;;4970603;28;20129;-52
2021/08/15 07:21:33;;;;;;;14.65;7.70;;;18.10;92.20;;;;;;4972889;28;20059;-53
2021/08/15 07:23:59;;;;;;;14.05;7.60;;;18.20;92.10;;;;;;4940578;28;20137;-52
2021/08/15 07:26:25;;;;;;;15.35;8.07;;;18.30;92.00;;;;;;4960950;28;20436;-49
2021/08/15 07:28:51;;;;;;;14.40;7.35;;;18.50;92.00;;;;;;4933793;28;20057;-52
2021/08/15 07:31:17;;;;;;;13.20;6.93;;;18.50;91.80;;;;;;4972790;28;20034;-52
2021/08/15 07:33:43;;;;;;;14.93;8.13;;;18.60;91.70;;;;;;4939340;28;20051;-53
2021/08/15 07:36:09;;;;;;;12.45;6.43;;;18.60;91.60;;;;;;4970780;28;20118;-53
2021/08/15 07:38:34;;;;;;;12.77;7.03;;;18.70;91.50;;;;;;4968545;28;20042;-54
2021/08/15 07:41:00;;;;;;;13.43;7.20;;;18.70;91.40;;;;;;4973075;28;20038;-52
2021/08/15 07:43:26;;;;;;;21.02;7.60;;;18.70;91.20;;;;;;4973156;28;20116;-53
2021/08/15 07:45:52;;;;;;;13.55;7.07;;;18.70;91.10;;;;;;4961210;28;20039;-53
2021/08/15 07:48:18;;;;;;;13.18;6.80;;;18.70;91.20;;;;;;4963832;28;20129;-50
2021/08/15 07:50:43;;;;;;;13.05;6.70;;;18.80;91.30;;;;;;4969423;28;20503;-49
2021/08/15 07:53:18;;;;;;;13.15;7.13;;;18.80;91.30;;;;;;4969235;28;20130;-54
2021/08/15 07:55:45;;;;;;;12.13;6.60;;;18.80;91.30;;;;;;4970373;28;20538;-53
2021/08/15 07:58:11;;;;;;;13.18;6.45;;;19.00;91.00;;;;;;4966701;28;20420;-53
2021/08/15 08:00:37;;;;;;;13.05;6.60;;;19.10;90.90;;;;;;4942466;28;20063;-51
2021/08/15 08:03:04;;;;;;;16.70;7.45;;;19.00;90.80;;;;;;4966376;28;20047;-52
2021/08/15 08:05:30;;;;;;;13.75;7.05;;;19.10;90.70;;;;;;4968944;28;20035;-49
2021/08/15 08:07:55;;;;;;;13.23;7.35;;;19.10;90.60;;;;;;4974429;28;20113;-51
2021/08/15 08:10:21;;;;;;;14.88;7.30;;;19.10;90.50;;;;;;4973635;28;20102;-54
2021/08/15 08:12:48;;;;;;;12.45;7.40;;;19.10;90.60;;;;;;4946352;28;20047;-51
2021/08/15 08:15:14;;;;;;;15.02;7.35;;;19.20;90.70;;;;;;4932920;28;20125;-52
2021/08/15 08:17:40;;;;;;;13.65;7.43;;;19.30;90.60;;;;;;4937439;28;20130;-49
2021/08/15 08:20:06;;;;;;;14.15;7.00;;;19.40;90.40;;;;;;4967021;28;20543;-52
2021/08/15 08:22:31;;;;;;;15.23;7.18;;;19.60;90.40;;;;;;4965094;28;20043;-51
2021/08/15 08:24:57;;;;;;;11.05;6.55;;;19.60;90.10;;;;;;4968981;28;20798;-55
2021/08/15 08:27:24;;;;;;;12.68;6.47;;;19.80;90.20;;;;;;4963783;28;20039;-51
2021/08/15 08:29:50;;;;;;;17.08;8.13;;;19.90;89.60;;;;;;4964181;28;20055;-50
2021/08/15 08:32:16;;;;;;;14.50;7.45;;;20.10;89.10;;;;;;4963259;28;20031;-51
2021/08/15 08:34:43;;;;;;;14.68;7.45;;;20.30;88.70;;;;;;4938879;28;20044;-52
2021/08/15 08:37:14;;;;;;;14.13;6.70;;;20.40;88.00;;;;;;4979442;28;20162;-52
2021/08/15 08:39:41;;;;;;;12.75;6.63;;;20.40;87.30;;;;;;4963670;28;20121;-50
2021/08/15 08:42:12;;;;;;;12.10;6.80;;;20.40;87.00;;;;;;4972242;28;20043;-51
2021/08/15 08:44:38;;;;;;;12.18;6.97;;;20.40;86.90;;;;;;4972949;28;20050;-52
2021/08/15 08:47:09;;;;;;;11.88;6.80;;;20.40;87.00;;;;;;4980429;28;20046;-54
2021/08/15 08:49:37;;;;;;;13.55;7.20;;;20.50;86.80;;;;;;4935304;28;20042;-53
2021/08/15 08:52:04;;;;;;;13.40;7.70;;;20.60;86.70;;;;;;4969133;28;20042;-51
2021/08/15 08:54:31;;;;;;;15.25;7.53;;;20.70;86.40;;;;;;4970591;28;20034;-54
2021/08/15 08:56:58;;;;;;;14.32;7.72;;;20.80;86.30;;;;;;4972237;28;20045;-51
2021/08/15 08:59:24;;;;;;;16.17;7.13;;;20.90;85.70;;;;;;4952134;28;20053;-50
2021/08/15 09:01:51;;;;;;;14.40;7.95;;;21.00;85.60;;;;;;4969228;28;20384;-54
2021/08/15 09:04:17;;;;;;;13.88;6.88;;;21.10;85.60;;;;;;4970456;28;20047;-52
2021/08/15 09:06:44;;;;;;;17.92;7.13;;;21.20;85.10;;;;;;4953208;28;20051;-52
2021/08/15 09:09:20;;;;;;;12.65;6.85;;;21.20;84.90;;;;;;4934901;28;20048;-52
2021/08/15 09:11:48;;;;;;;12.68;7.35;;;21.10;84.40;;;;;;4937308;28;20031;-52
2021/08/15 09:14:24;;;;;;;13.98;6.72;;;21.10;85.10;;;;;;4970990;28;20602;-52
2021/08/15 09:16:59;;;;;;;12.25;6.90;;;21.10;85.20;;;;;;4951163;28;20039;-51
2021/08/15 09:19:26;;;;;;;13.50;7.60;;;21.10;85.50;;;;;;4969786;28;20042;-54
2021/08/15 09:21:53;;;;;;;15.27;6.72;;;21.10;85.50;;;;;;4964235;28;20035;-53
2021/08/15 09:24:19;;;;;;;11.50;6.53;;;21.10;85.40;;;;;;4969690;28;20042;-55
2021/08/15 09:26:56;;;;;;;12.90;6.95;;;21.00;85.10;;;;;;4966710;28;20043;-51
2021/08/15 09:29:22;;;;;;;15.75;7.60;;;21.10;85.00;;;;;;4966056;28;20070;-54
2021/08/15 09:31:47;;;;;;;10.82;6.65;;;21.20;84.80;;;;;;4968567;28;20427;-53
2021/08/15 09:34:26;;;;;;;12.68;6.75;;;21.30;84.60;;;;;;4944331;28;20047;-51
2021/08/15 09:36:52;;;;;;;15.43;7.07;;;21.50;84.30;;;;;;4965556;28;20113;-51
2021/08/15 09:39:33;;;;;;;12.98;6.72;;;21.70;82.90;;;;;;4936631;28;20503;-51
2021/08/15 09:42:00;;;;;;;14.32;6.88;;;21.90;82.00;;;;;;4964849;28;20077;-53
2021/08/15 09:44:28;;;;;;;13.32;6.32;;;22.00;81.40;;;;;;4946569;28;20046;-51
2021/08/15 09:47:13;;;;;;;12.77;7.05;;;22.00;81.20;;;;;;4967543;28;20035;-49
2021/08/15 09:49:45;;;;;;;12.02;6.82;;;22.20;81.60;;;;;;4965155;28;20125;-50
2021/08/15 09:52:16;;;;;;;14.32;6.95;;;22.30;80.80;;;;;;4971782;28;20094;-48
2021/08/15 09:54:53;;;;;;;13.35;6.80;;;22.40;80.60;;;;;;4959586;28;20117;-54
2021/08/15 09:57:32;;;;;;;15.07;6.80;;;22.50;79.80;;;;;;4969284;28;20503;-52
2021/08/15 10:00:27;;;;;;;13.70;6.82;;;22.60;78.60;;;;;;4967563;28;20047;-52
2021/08/15 10:02:54;;;;;;;13.02;7.07;;;22.60;77.70;;;;;;4948462;28;20166;-51
2021/08/15 10:05:20;;;;;;;13.38;6.68;;;22.70;78.40;;;;;;4965795;28;20039;-52
2021/08/15 10:07:46;;;;;;;13.18;6.80;;;22.70;78.70;;;;;;4969176;28;20042;-52
2021/08/15 10:10:13;;;;;;;14.38;7.53;;;22.80;78.80;;;;;;4973152;28;20125;-52
2021/08/15 10:12:39;;;;;;;14.85;6.70;;;22.80;78.20;;;;;;4971473;28;20041;-48
2021/08/15 10:15:11;;;;;;;14.07;7.38;;;22.90;78.80;;;;;;4972547;28;20042;-52
2021/08/15 10:17:38;;;;;;;12.93;6.50;;;23.10;78.60;;;;;;4972541;28;20141;-52
2021/08/15 10:20:08;;;;;;;12.32;6.47;;;23.20;78.10;;;;;;4971609;28;20043;-51
2021/08/15 10:22:35;;;;;;;13.43;6.68;;;23.30;78.40;;;;;;4974780;28;20073;-52
2021/08/15 10:25:05;;;;;;;10.68;6.00;;;23.40;77.00;;;;;;4963905;28;20046;-52
2021/08/15 10:27:40;;;;;;;9.70;5.80;;;23.50;76.40;;;;;;4952103;28;20122;-52
2021/08/15 10:30:21;;;;;;;12.27;6.32;;;23.50;75.30;;;;;;4972403;28;20137;-49
2021/08/15 10:32:56;;;;;;;11.10;6.30;;;23.50;75.70;;;;;;4954009;28;20447;-52
2021/08/15 10:35:26;;;;;;;14.43;7.20;;;23.50;76.60;;;;;;4969249;28;20047;-56
2021/08/15 10:38:11;;;;;;;11.52;6.30;;;23.60;76.70;;;;;;4957995;28;20550;-54
2021/08/15 10:40:41;;;;;;;9.07;5.70;;;23.70;76.10;;;;;;4974272;28;20043;-56
2021/08/15 10:43:10;;;;;;;12.10;6.00;;;23.80;75.90;;;;;;4967239;28;20043;-54
2021/08/15 10:45:37;;;;;;;9.48;5.20;;;23.80;75.60;;;;;;4975051;28;20566;-56
2021/08/15 10:48:12;;;;;;;10.18;5.18;;;23.80;74.50;;;;;;4973505;28;20484;-56
2021/08/15 10:50:47;;;;;;;8.73;4.82;;;23.80;72.60;;;;;;4971922;28;20549;-56
2021/08/15 10:53:29;;;;;;;10.63;5.22;;;23.70;72.50;;;;;;4956457;28;20496;-56
2021/08/15 10:56:02;;;;;;;12.50;5.35;;;23.80;72.90;;;;;;4954265;28;20061;-55
2021/08/15 10:58:46;;;;;;;12.40;5.28;;;23.90;72.10;;;;;;4969993;28;20046;-56
2021/08/15 11:01:16;;;;;;;9.35;4.95;;;23.90;72.00;;;;;;4972901;28;20125;-56
2021/08/15 11:03:48;;;;;;;10.73;5.13;;;24.00;72.80;;;;;;4974514;28;20042;-56
2021/08/15 11:06:32;;;;;;;12.88;5.05;;;24.10;72.70;;;;;;4972421;28;20046;-51
2021/08/15 11:09:00;;;;;;;9.38;5.07;;;24.20;73.10;;;;;;4972201;28;20066;-55
2021/08/15 11:11:33;;;;;;;11.52;5.25;;;24.40;72.80;;;;;;4971430;28;20046;-50
2021/08/15 11:14:17;;;;;;;10.43;4.80;;;24.50;71.80;;;;;;4952156;28;20504;-50
2021/08/15 11:16:50;;;;;;;9.75;4.70;;;24.40;71.90;;;;;;4971222;28;20035;-54
2021/08/15 11:19:16;;;;;;;9.93;4.88;;;24.40;71.90;;;;;;4970273;28;20381;-51
2021/08/15 11:22:03;;;;;;;12.38;4.70;;;24.50;71.90;;;;;;4969335;28;20093;-52
2021/08/15 11:24:34;;;;;;;9.48;4.70;;;24.60;72.00;;;;;;4966554;28;20043;-52
2021/08/15 11:27:00;;;;;;;11.55;4.55;;;24.70;71.30;;;;;;4969875;28;20468;-53
2021/08/15 11:29:26;;;;;;;10.73;5.10;;;24.80;71.20;;;;;;4970546;28;20069;-56
2021/08/15 11:31:53;;;;;;;11.15;5.28;;;24.80;71.00;;;;;;4972070;28;20046;-56
2021/08/15 11:34:19;;;;;;;10.73;5.05;;;24.90;70.70;;;;;;4955932;28;20073;-56
2021/08/15 11:37:03;;;;;;;12.52;5.13;;;24.90;70.40;;;;;;4971338;28;20101;-55
2021/08/15 11:39:35;;;;;;;10.02;5.63;;;24.90;69.20;;;;;;4973259;28;20041;-55
2021/08/15 11:42:03;;;;;;;8.65;4.68;;;24.90;69.70;;;;;;4973021;28;20058;-55
2021/08/15 11:44:52;;;;;;;9.38;5.32;;;24.90;70.50;;;;;;4973835;28;20081;-51
2021/08/15 11:47:21;;;;;;;12.15;5.38;;;25.00;70.10;;;;;;4970088;28;20189;-50
2021/08/15 11:49:48;;;;;;;9.52;5.15;;;25.00;69.80;;;;;;4971751;28;20049;-49
2021/08/15 11:52:25;;;;;;;8.30;4.63;;;25.00;67.50;;;;;;4943792;28;20043;-52
2021/08/15 11:54:53;;;;;;;10.52;4.47;;;24.90;67.60;;;;;;4969573;28;20046;-51
2021/08/15 11:57:20;;;;;;;9.43;4.70;;;24.90;69.40;;;;;;4972443;28;20035;-51
2021/08/15 11:59:59;;;;;;;11.40;4.55;;;25.00;67.00;;;;;;4972248;28;20471;-51
2021/08/15 12:02:25;;;;;;;11.23;5.03;;;25.00;68.00;;;;;;4970127;28;20057;-50
2021/08/15 12:04:50;;;;;;;10.63;4.85;;;24.90;67.70;;;;;;4973351;28;20030;-55
2021/08/15 12:07:24;;;;;;;11.07;4.68;;;24.90;68.60;;;;;;4972530;28;20475;-53
2021/08/15 12:10:29;;;;;;;8.88;4.47;;;24.90;67.60;;;;;;4971674;28;20538;-53
2021/08/15 12:13:23;;;;;;;7.25;4.22;;;24.90;67.40;;;;;;4945361;28;20045;-55
2021/08/15 12:15:50;;;;;;;8.32;4.50;;;24.90;66.80;;;;;;4971382;28;20063;-56
2021/08/15 12:18:49;;;;;;;7.60;4.38;;;24.90;66.50;;;;;;4970997;28;20125;-52
2021/08/15 12:21:31;;;;;;;8.00;4.00;;;25.00;67.50;;;;;;4950773;28;20050;-56
2021/08/15 12:24:10;;;;;;;8.80;4.13;;;24.90;66.50;;;;;;4967566;28;20180;-54
2021/08/15 12:27:00;;;;;;;8.55;4.13;;;24.90;67.20;;;;;;4968638;28;20050;-51
2021/08/15 12:29:29;;;;;;;7.72;4.35;;;24.80;67.00;;;;;;4971332;28;20050;-56
2021/08/15 12:32:13;;;;;;;9.82;4.00;;;24.90;68.60;;;;;;4932673;28;20043;-55
2021/08/15 12:34:44;;;;;;;7.70;4.40;;;24.80;68.80;;;;;;4928256;28;20045;-52
2021/08/15 12:37:17;;;;;;;9.57;4.72;;;24.70;69.00;;;;;;4970199;28;20490;-53
2021/08/15 12:39:43;;;;;;;9.90;4.43;;;24.60;69.50;;;;;;4951221;28;20078;-53
2021/08/15 12:42:21;;;;;;;8.52;4.43;;;24.60;70.30;;;;;;4966124;28;20495;-54
2021/08/15 12:44:56;;;;;;;8.68;4.45;;;24.70;70.70;;;;;;4954507;28;20054;-52